sensor_id;sensor_type;location;lat;lon;timestamp;pressure;altitude;pressure_sealevel;temperature;humidity
8049;BME280;20935;42.660;23.342;2023-05-11T00:01:02;94942.50;;;19.91;54.94
8049;BME280;20935;42.660;23.342;2023-05-11T00:03:49;94939.78;;;19.91;55.02
8049;BME280;20935;42.660;23.342;2023-05-11T00:06:35;94949.91;;;19.90;54.94
8049;BME280;20935;42.660;23.342;2023-05-11T00:09:20;94948.69;;;19.91;55.19
8049;BME280;20935;42.660;23.342;2023-05-11T00:12:06;94949.16;;;19.90;54.92
8049;BME280;20935;42.660;23.342;2023-05-11T00:14:52;94948.69;;;19.91;54.96
8049;BME280;20935;42.660;23.342;2023-05-11T00:17:37;94955.66;;;19.92;54.79
8049;BME280;20935;42.660;23.342;2023-05-11T00:20:24;94952.63;;;19.90;54.75
8049;BME280;20935;42.660;23.342;2023-05-11T00:23:10;94957.31;;;19.90;54.99
8049;BME280;20935;42.660;23.342;2023-05-11T00:25:55;94954.13;;;19.91;54.82
8049;BME280;20935;42.660;23.342;2023-05-11T00:28:41;94959.72;;;19.88;54.68
8049;BME280;20935;42.660;23.342;2023-05-11T00:31:26;94954.28;;;19.88;55.04
8049;BME280;20935;42.660;23.342;2023-05-11T00:34:11;94956.22;;;19.87;54.91
8049;BME280;20935;42.660;23.342;2023-05-11T00:36:58;94953.97;;;19.86;54.94
8049;BME280;20935;42.660;23.342;2023-05-11T00:39:43;94954.75;;;19.86;54.65
8049;BME280;20935;42.660;23.342;2023-05-11T00:42:29;94960.91;;;19.87;54.56
8049;BME280;20935;42.660;23.342;2023-05-11T00:45:14;94956.38;;;19.84;54.76
8049;BME280;20935;42.660;23.342;2023-05-11T00:48:00;94958.78;;;19.82;54.90
8049;BME280;20935;42.660;23.342;2023-05-11T00:50:45;94962.72;;;19.81;54.83
8049;BME280;20935;42.660;23.342;2023-05-11T00:53:33;94961.19;;;19.80;54.94
8049;BME280;20935;42.660;23.342;2023-05-11T00:56:18;94965.88;;;19.79;54.85
8049;BME280;20935;42.660;23.342;2023-05-11T00:59:04;94962.38;;;19.79;54.87
8049;BME280;20935;42.660;23.342;2023-05-11T01:01:49;94965.88;;;19.79;54.96
8049;BME280;20935;42.660;23.342;2023-05-11T01:04:35;94958.47;;;19.80;54.72
8049;BME280;20935;42.660;23.342;2023-05-11T01:07:25;94963.63;;;19.78;54.67
8049;BME280;20935;42.660;23.342;2023-05-11T01:10:22;94974.50;;;19.78;54.82
8049;BME280;20935;42.660;23.342;2023-05-11T01:13:15;94958.19;;;19.78;54.77
8049;BME280;20935;42.660;23.342;2023-05-11T01:16:07;94954.22;;;19.79;54.78
8049;BME280;20935;42.660;23.342;2023-05-11T01:19:00;94958.94;;;19.78;54.67
8049;BME280;20935;42.660;23.342;2023-05-11T01:21:49;94956.22;;;19.78;54.53
8049;BME280;20935;42.660;23.342;2023-05-11T01:24:44;94963.16;;;19.79;54.77
8049;BME280;20935;42.660;23.342;2023-05-11T01:27:52;94963.91;;;19.80;54.70
8049;BME280;20935;42.660;23.342;2023-05-11T01:30:46;94961.66;;;19.78;54.57
8049;BME280;20935;42.660;23.342;2023-05-11T01:33:34;94958.19;;;19.78;54.65
8049;BME280;20935;42.660;23.342;2023-05-11T01:36:24;94962.84;;;19.77;54.67
8049;BME280;20935;42.660;23.342;2023-05-11T01:39:13;94962.09;;;19.77;54.50
8049;BME280;20935;42.660;23.342;2023-05-11T01:42:04;94965.09;;;19.79;54.56
8049;BME280;20935;42.660;23.342;2023-05-11T01:44:52;94964.38;;;19.78;54.64
8049;BME280;20935;42.660;23.342;2023-05-11T01:47:42;94964.38;;;19.78;54.39
8049;BME280;20935;42.660;23.342;2023-05-11T01:50:30;94962.09;;;19.77;54.40
8049;BME280;20935;42.660;23.342;2023-05-11T01:53:17;94964.81;;;19.77;54.42
8049;BME280;20935;42.660;23.342;2023-05-11T01:56:04;94965.25;;;19.75;54.33
8049;BME280;20935;42.660;23.342;2023-05-11T01:58:51;94961.75;;;19.75;54.51
8049;BME280;20935;42.660;23.342;2023-05-11T02:01:39;94959.81;;;19.75;54.44
8049;BME280;20935;42.660;23.342;2023-05-11T02:04:27;94969.63;;;19.73;54.46
8049;BME280;20935;42.660;23.342;2023-05-11T02:07:15;94958.75;;;19.73;54.50
8049;BME280;20935;42.660;23.342;2023-05-11T02:10:03;94958.75;;;19.73;54.54
8049;BME280;20935;42.660;23.342;2023-05-11T02:12:50;94968.44;;;19.74;54.54
8049;BME280;20935;42.660;23.342;2023-05-11T02:15:40;94955.59;;;19.74;54.38
8049;BME280;20935;42.660;23.342;2023-05-11T02:18:27;94960.72;;;19.72;54.31
8049;BME280;20935;42.660;23.342;2023-05-11T02:21:15;94955.28;;;19.72;54.25
8049;BME280;20935;42.660;23.342;2023-05-11T02:24:01;94949.06;;;19.72;54.26
8049;BME280;20935;42.660;23.342;2023-05-11T02:26:49;94957.22;;;19.72;54.31
8049;BME280;20935;42.660;23.342;2023-05-11T02:29:34;94953.03;;;19.71;54.21
8049;BME280;20935;42.660;23.342;2023-05-11T02:32:21;94947.88;;;19.73;54.21
8049;BME280;20935;42.660;23.342;2023-05-11T02:35:12;94956.03;;;19.73;54.07
8049;BME280;20935;42.660;23.342;2023-05-11T02:38:02;94956.78;;;19.73;54.05
8049;BME280;20935;42.660;23.342;2023-05-11T02:40:50;94949.84;;;19.72;54.23
8049;BME280;20935;42.660;23.342;2023-05-11T02:43:43;94951.78;;;19.72;54.11
8049;BME280;20935;42.660;23.342;2023-05-11T02:46:33;94951.78;;;19.72;54.03
8049;BME280;20935;42.660;23.342;2023-05-11T02:49:20;94954.50;;;19.72;53.95
8049;BME280;20935;42.660;23.342;2023-05-11T02:52:07;94958.75;;;19.73;53.84
8049;BME280;20935;42.660;23.342;2023-05-11T02:54:55;94956.03;;;19.73;53.98
8049;BME280;20935;42.660;23.342;2023-05-11T02:57:41;94950.59;;;19.73;53.86
8049;BME280;20935;42.660;23.342;2023-05-11T03:00:27;94954.84;;;19.74;53.73
8049;BME280;20935;42.660;23.342;2023-05-11T03:03:12;94947.88;;;19.73;53.97
8049;BME280;20935;42.660;23.342;2023-05-11T03:05:57;94948.31;;;19.71;53.83
8049;BME280;20935;42.660;23.342;2023-05-11T03:08:43;94947.59;;;19.71;53.81
8049;BME280;20935;42.660;23.342;2023-05-11T03:11:30;94942.88;;;19.71;53.89
8049;BME280;20935;42.660;23.342;2023-05-11T03:14:17;94949.53;;;19.70;53.89
8049;BME280;20935;42.660;23.342;2023-05-11T03:17:03;94945.31;;;19.69;53.78
8049;BME280;20935;42.660;23.342;2023-05-11T03:19:50;94939.88;;;19.69;53.81
8049;BME280;20935;42.660;23.342;2023-05-11T03:22:38;94949.97;;;19.68;53.67
8049;BME280;20935;42.660;23.342;2023-05-11T03:25:23;94953.44;;;19.69;53.89
8049;BME280;20935;42.660;23.342;2023-05-11T03:28:11;94949.22;;;19.68;53.74
8049;BME280;20935;42.660;23.342;2023-05-11T03:30:57;94954.34;;;19.66;53.72
8049;BME280;20935;42.660;23.342;2023-05-11T03:33:43;94950.13;;;19.65;53.79
8049;BME280;20935;42.660;23.342;2023-05-11T03:36:29;94953.59;;;19.65;53.80
8049;BME280;20935;42.660;23.342;2023-05-11T03:39:16;94952.84;;;19.65;53.61
8049;BME280;20935;42.660;23.342;2023-05-11T03:42:01;94956.44;;;19.62;53.57
8049;BME280;20935;42.660;23.342;2023-05-11T03:44:49;94954.16;;;19.60;53.81
8049;BME280;20935;42.660;23.342;2023-05-11T03:47:40;94969.72;;;19.60;53.77
8049;BME280;20935;42.660;23.342;2023-05-11T03:50:27;94958.84;;;19.60;53.79
8049;BME280;20935;42.660;23.342;2023-05-11T03:53:13;94963.97;;;19.58;53.53
8049;BME280;20935;42.660;23.342;2023-05-11T03:55:59;94974.38;;;19.59;53.70
8049;BME280;20935;42.660;23.342;2023-05-11T03:58:45;94974.38;;;19.59;53.66
8049;BME280;20935;42.660;23.342;2023-05-11T04:01:33;94965.47;;;19.59;53.71
8049;BME280;20935;42.660;23.342;2023-05-11T04:04:18;94966.69;;;19.58;53.78
8049;BME280;20935;42.660;23.342;2023-05-11T04:07:03;94977.56;;;19.58;53.70
8049;BME280;20935;42.660;23.342;2023-05-11T04:09:49;94976.81;;;19.57;53.64
8049;BME280;20935;42.660;23.342;2023-05-11T04:12:35;94974.09;;;19.57;53.66
8049;BME280;20935;42.660;23.342;2023-05-11T04:15:20;94979.97;;;19.56;53.51
8049;BME280;20935;42.660;23.342;2023-05-11T04:18:07;94975.28;;;19.56;53.61
8049;BME280;20935;42.660;23.342;2023-05-11T04:20:52;94981.47;;;19.57;53.56
8049;BME280;20935;42.660;23.342;2023-05-11T04:23:38;94979.53;;;19.57;53.60
8049;BME280;20935;42.660;23.342;2023-05-11T04:26:23;94980.72;;;19.56;53.60
8049;BME280;20935;42.660;23.342;2023-05-11T04:29:09;94989.63;;;19.57;53.65
8049;BME280;20935;42.660;23.342;2023-05-11T04:31:54;94993.88;;;19.58;53.57
8049;BME280;20935;42.660;23.342;2023-05-11T04:34:41;94991.59;;;19.56;53.43
8049;BME280;20935;42.660;23.342;2023-05-11T04:37:26;94988.88;;;19.56;53.53
8049;BME280;20935;42.660;23.342;2023-05-11T04:40:12;94995.81;;;19.57;53.37
8049;BME280;20935;42.660;23.342;2023-05-11T04:42:57;94994.63;;;19.58;53.43
8049;BME280;20935;42.660;23.342;2023-05-11T04:45:46;94999.31;;;19.58;53.28
8049;BME280;20935;42.660;23.342;2023-05-11T04:48:32;94993.88;;;19.58;53.44
8049;BME280;20935;42.660;23.342;2023-05-11T04:51:19;94999.31;;;19.58;53.28
8049;BME280;20935;42.660;23.342;2023-05-11T04:54:04;94998.53;;;19.57;53.19
8049;BME280;20935;42.660;23.342;2023-05-11T04:56:50;94991.44;;;19.60;53.39
8049;BME280;20935;42.660;23.342;2023-05-11T04:59:35;94994.94;;;19.60;53.31
8049;BME280;20935;42.660;23.342;2023-05-11T05:02:21;94997.97;;;19.62;53.18
8049;BME280;20935;42.660;23.342;2023-05-11T05:05:07;95000.81;;;19.59;53.11
8049;BME280;20935;42.660;23.342;2023-05-11T05:07:54;95001.56;;;19.59;53.13
8049;BME280;20935;42.660;23.342;2023-05-11T05:10:39;95002.31;;;19.60;53.31
8049;BME280;20935;42.660;23.342;2023-05-11T05:13:25;94997.66;;;19.60;53.21
8049;BME280;20935;42.660;23.342;2023-05-11T05:16:13;95015.47;;;19.61;53.18
8049;BME280;20935;42.660;23.342;2023-05-11T05:18:58;95020.16;;;19.61;53.07
8049;BME280;20935;42.660;23.342;2023-05-11T05:21:44;95020.91;;;19.61;53.17
8049;BME280;20935;42.660;23.342;2023-05-11T05:24:32;95021.34;;;19.60;53.23
8049;BME280;20935;42.660;23.342;2023-05-11T05:27:18;95023.63;;;19.61;53.14
8049;BME280;20935;42.660;23.342;2023-05-11T05:30:04;95018.94;;;19.62;53.15
8049;BME280;20935;42.660;23.342;2023-05-11T05:32:50;95029.06;;;19.61;53.01
8049;BME280;20935;42.660;23.342;2023-05-11T05:35:35;95031.31;;;19.63;53.05
8049;BME280;20935;42.660;23.342;2023-05-11T05:38:21;95021.22;;;19.63;52.99
8049;BME280;20935;42.660;23.342;2023-05-11T05:41:07;95033.31;;;19.62;53.01
8049;BME280;20935;42.660;23.342;2023-05-11T05:43:53;95025.16;;;19.62;53.07
8049;BME280;20935;42.660;23.342;2023-05-11T05:46:38;95044.91;;;19.63;52.92
8049;BME280;20935;42.660;23.342;2023-05-11T05:49:24;95025.16;;;19.62;53.03
8049;BME280;20935;42.660;23.342;2023-05-11T05:52:09;95030.88;;;19.64;52.87
8049;BME280;20935;42.660;23.342;2023-05-11T05:54:55;95033.59;;;19.64;53.03
8049;BME280;20935;42.660;23.342;2023-05-11T05:57:42;95035.56;;;19.64;52.98
8049;BME280;20935;42.660;23.342;2023-05-11T06:00:27;95037.50;;;19.63;52.81
8049;BME280;20935;42.660;23.342;2023-05-11T06:03:12;95038.28;;;19.64;52.90
8049;BME280;20935;42.660;23.342;2023-05-11T06:05:58;95038.28;;;19.64;52.93
8049;BME280;20935;42.660;23.342;2023-05-11T06:08:48;95034.38;;;19.65;52.86
8049;BME280;20935;42.660;23.342;2023-05-11T06:11:33;95039.38;;;19.66;52.97
8049;BME280;20935;42.660;23.342;2023-05-11T06:14:20;95040.56;;;19.65;53.02
8049;BME280;20935;42.660;23.342;2023-05-11T06:17:05;95039.81;;;19.65;52.93
8049;BME280;20935;42.660;23.342;2023-05-11T06:19:51;95041.31;;;19.66;52.78
8049;BME280;20935;42.660;23.342;2023-05-11T06:22:36;95055.34;;;19.64;52.89
8049;BME280;20935;42.660;23.342;2023-05-11T06:25:22;95053.38;;;19.65;52.77
8049;BME280;20935;42.660;23.342;2023-05-11T06:28:07;95059.25;;;19.63;52.86
8049;BME280;20935;42.660;23.342;2023-05-11T06:30:56;95060.47;;;19.62;52.99
8049;BME280;20935;42.660;23.342;2023-05-11T06:33:42;95060.03;;;19.64;52.92
8049;BME280;20935;42.660;23.342;2023-05-11T06:36:27;95071.97;;;19.66;52.79
8049;BME280;20935;42.660;23.342;2023-05-11T06:39:13;95065.78;;;19.66;52.86
8049;BME280;20935;42.660;23.342;2023-05-11T06:41:58;95073.19;;;19.65;52.77
8049;BME280;20935;42.660;23.342;2023-05-11T06:44:43;95057.75;;;19.62;53.17
8049;BME280;20935;42.660;23.342;2023-05-11T06:47:30;95069.56;;;19.68;53.39
8049;BME280;20935;42.660;23.342;2023-05-11T06:50:16;95069.91;;;19.71;53.64
8049;BME280;20935;42.660;23.342;2023-05-11T06:53:01;95065.19;;;19.71;53.58
8049;BME280;20935;42.660;23.342;2023-05-11T06:55:46;95061.28;;;19.72;53.55
8049;BME280;20935;42.660;23.342;2023-05-11T06:58:32;95060.84;;;19.74;53.72
8049;BME280;20935;42.660;23.342;2023-05-11T07:01:17;95071.25;;;19.75;53.36
8049;BME280;20935;42.660;23.342;2023-05-11T07:04:05;95064.06;;;19.81;53.28
8049;BME280;20935;42.660;23.342;2023-05-11T07:06:50;95071.66;;;19.86;53.29
8049;BME280;20935;42.660;23.342;2023-05-11T07:09:36;95064.84;;;19.91;53.19
8049;BME280;20935;42.660;23.342;2023-05-11T07:12:21;95068.66;;;19.93;53.04
8049;BME280;20935;42.660;23.342;2023-05-11T07:15:08;95065.78;;;19.97;53.22
8049;BME280;20935;42.660;23.342;2023-05-11T07:17:53;95072.63;;;20.01;53.28
8049;BME280;20935;42.660;23.342;2023-05-11T07:20:40;95069.31;;;20.06;53.08
8049;BME280;20935;42.660;23.342;2023-05-11T07:23:25;95059.66;;;20.05;53.13
8049;BME280;20935;42.660;23.342;2023-05-11T07:26:10;95062.38;;;20.05;53.40
8049;BME280;20935;42.660;23.342;2023-05-11T07:28:55;95073.53;;;20.07;53.10
8049;BME280;20935;42.660;23.342;2023-05-11T07:31:40;95063.75;;;20.10;53.32
8049;BME280;20935;42.660;23.342;2023-05-11T07:34:25;95070.25;;;20.12;53.06
8049;BME280;20935;42.660;23.342;2023-05-11T07:37:12;95066.63;;;20.15;53.01
8049;BME280;20935;42.660;23.342;2023-05-11T07:39:57;95074.66;;;20.19;53.00
8049;BME280;20935;42.660;23.342;2023-05-11T07:42:42;95066.06;;;20.21;53.29
8049;BME280;20935;42.660;23.342;2023-05-11T07:45:28;95069.84;;;20.23;53.13
8049;BME280;20935;42.660;23.342;2023-05-11T07:48:14;95069.41;;;20.25;53.09
8049;BME280;20935;42.660;23.342;2023-05-11T07:50:59;95071.22;;;20.28;53.09
8049;BME280;20935;42.660;23.342;2023-05-11T07:53:45;95063.41;;;20.30;53.22
8049;BME280;20935;42.660;23.342;2023-05-11T07:56:30;95065.53;;;20.35;52.91
8049;BME280;20935;42.660;23.342;2023-05-11T07:59:16;95071.28;;;20.37;52.80
8049;BME280;20935;42.660;23.342;2023-05-11T08:02:01;95074.31;;;20.39;52.99
8049;BME280;20935;42.660;23.342;2023-05-11T08:04:46;95070.72;;;20.42;53.14
8049;BME280;20935;42.660;23.342;2023-05-11T08:07:32;95068.28;;;20.44;53.14
8049;BME280;20935;42.660;23.342;2023-05-11T08:10:18;95067.38;;;20.47;52.85
8049;BME280;20935;42.660;23.342;2023-05-11T08:13:03;95069.66;;;20.48;53.11
8049;BME280;20935;42.660;23.342;2023-05-11T08:15:48;95061.06;;;20.50;53.00
8049;BME280;20935;42.660;23.342;2023-05-11T08:18:34;95074.97;;;20.52;52.93
8049;BME280;20935;42.660;23.342;2023-05-11T08:21:19;95078.00;;;20.54;53.09
8049;BME280;20935;42.660;23.342;2023-05-11T08:24:04;95066.22;;;20.57;53.02
8049;BME280;20935;42.660;23.342;2023-05-11T08:26:51;95068.47;;;20.58;53.04
8049;BME280;20935;42.660;23.342;2023-05-11T08:29:36;95066.06;;;20.60;53.24
8049;BME280;20935;42.660;23.342;2023-05-11T08:32:21;95062.59;;;20.60;53.13
8049;BME280;20935;42.660;23.342;2023-05-11T08:35:07;95073.78;;;20.62;54.07
8049;BME280;20935;42.660;23.342;2023-05-11T08:37:52;95073.47;;;20.60;54.10
8049;BME280;20935;42.660;23.342;2023-05-11T08:40:37;95070.31;;;20.61;56.35
8049;BME280;20935;42.660;23.342;2023-05-11T08:43:24;95064.41;;;20.63;56.71
8049;BME280;20935;42.660;23.342;2023-05-11T08:46:10;95060.47;;;20.64;58.05
8049;BME280;20935;42.660;23.342;2023-05-11T08:48:57;95066.97;;;20.67;60.75
8049;BME280;20935;42.660;23.342;2023-05-11T08:51:43;95061.09;;;20.68;62.69
8049;BME280;20935;42.660;23.342;2023-05-11T08:54:29;95053.69;;;20.69;63.94
8049;BME280;20935;42.660;23.342;2023-05-11T08:57:14;95061.09;;;20.68;65.21
8049;BME280;20935;42.660;23.342;2023-05-11T09:00:01;95056.84;;;20.67;65.98
8049;BME280;20935;42.660;23.342;2023-05-11T09:02:47;95050.97;;;20.69;65.70
8049;BME280;20935;42.660;23.342;2023-05-11T09:05:33;95054.13;;;20.67;65.88
8049;BME280;20935;42.660;23.342;2023-05-11T09:08:19;95058.06;;;20.66;65.99
8049;BME280;20935;42.660;23.342;2023-05-11T09:11:04;95053.38;;;20.67;66.66
8049;BME280;20935;42.660;23.342;2023-05-11T09:13:49;95048.25;;;20.69;66.31
8049;BME280;20935;42.660;23.342;2023-05-11T09:16:36;95046.72;;;20.68;66.74
8049;BME280;20935;42.660;23.342;2023-05-11T09:19:21;95052.94;;;20.68;66.58
8049;BME280;20935;42.660;23.342;2023-05-11T09:22:06;95055.97;;;20.70;67.54
8049;BME280;20935;42.660;23.342;2023-05-11T09:24:51;95048.69;;;20.67;67.53
8049;BME280;20935;42.660;23.342;2023-05-11T09:27:39;95054.59;;;20.66;67.91
8049;BME280;20935;42.660;23.342;2023-05-11T09:30:24;95051.09;;;20.65;67.44
8049;BME280;20935;42.660;23.342;2023-05-11T09:33:10;95052.31;;;20.64;67.25
8049;BME280;20935;42.660;23.342;2023-05-11T09:35:55;95049.28;;;20.62;67.57
8049;BME280;20935;42.660;23.342;2023-05-11T09:38:42;95050.34;;;20.65;68.08
8049;BME280;20935;42.660;23.342;2023-05-11T09:41:27;95053.06;;;20.65;67.93
8049;BME280;20935;42.660;23.342;2023-05-11T09:44:12;95057.31;;;20.66;68.55
8049;BME280;20935;42.660;23.342;2023-05-11T09:47:03;95056.22;;;20.63;68.67
8049;BME280;20935;42.660;23.342;2023-05-11T09:49:55;95055.03;;;20.64;68.57
8049;BME280;20935;42.660;23.342;2023-05-11T09:52:42;95048.06;;;20.63;68.76
8049;BME280;20935;42.660;23.342;2023-05-11T09:55:33;95042.19;;;20.65;68.67
8049;BME280;20935;42.660;23.342;2023-05-11T09:58:19;95039.47;;;20.65;68.67
8049;BME280;20935;42.660;23.342;2023-05-11T10:01:04;95043.69;;;20.66;68.75
8049;BME280;20935;42.660;23.342;2023-05-11T10:03:50;95032.81;;;20.66;68.18
8049;BME280;20935;42.660;23.342;2023-05-11T10:06:44;95030.09;;;20.66;68.81
8049;BME280;20935;42.660;23.342;2023-05-11T10:09:30;95023.56;;;20.63;68.66
8049;BME280;20935;42.660;23.342;2023-05-11T10:12:15;95030.25;;;20.62;68.75
8049;BME280;20935;42.660;23.342;2023-05-11T10:15:02;95034.63;;;20.69;69.01
8049;BME280;20935;42.660;23.342;2023-05-11T10:17:47;95022.53;;;20.70;69.08
8049;BME280;20935;42.660;23.342;2023-05-11T10:20:33;95027.22;;;20.69;69.59
8049;BME280;20935;42.660;23.342;2023-05-11T10:23:20;95019.34;;;20.71;69.47
8049;BME280;20935;42.660;23.342;2023-05-11T10:26:05;95018.59;;;20.71;69.28
8049;BME280;20935;42.660;23.342;2023-05-11T10:28:51;95019.66;;;20.73;69.40
8049;BME280;20935;42.660;23.342;2023-05-11T10:31:36;95015.72;;;20.74;69.53
8049;BME280;20935;42.660;23.342;2023-05-11T10:34:21;95012.25;;;20.74;69.32
8049;BME280;20935;42.660;23.342;2023-05-11T10:37:07;95007.53;;;20.74;70.03
8049;BME280;20935;42.660;23.342;2023-05-11T10:39:55;95000.91;;;20.75;69.47
8049;BME280;20935;42.660;23.342;2023-05-11T10:42:46;95001.97;;;20.78;69.52
8049;BME280;20935;42.660;23.342;2023-05-11T10:45:35;95008.47;;;20.80;69.10
8049;BME280;20935;42.660;23.342;2023-05-11T10:51:32;94998.03;;;20.79;69.91
8049;BME280;20935;42.660;23.342;2023-05-11T10:54:29;95005.44;;;20.78;70.00
8049;BME280;20935;42.660;23.342;2023-05-11T10:57:33;95007.41;;;20.78;69.99
8049;BME280;20935;42.660;23.342;2023-05-11T11:00:45;95001.97;;;20.78;69.98
8049;BME280;20935;42.660;23.342;2023-05-11T11:03:40;95005.44;;;20.78;69.97
8049;BME280;20935;42.660;23.342;2023-05-11T11:06:26;95001.97;;;20.78;70.30
8049;BME280;20935;42.660;23.342;2023-05-11T11:09:12;94987.91;;;20.79;70.51
8049;BME280;20935;42.660;23.342;2023-05-11T11:12:07;94995.31;;;20.79;70.61
8049;BME280;20935;42.660;23.342;2023-05-11T11:14:55;94998.78;;;20.79;70.03
8049;BME280;20935;42.660;23.342;2023-05-11T11:17:41;94996.06;;;20.79;70.29
8049;BME280;20935;42.660;23.342;2023-05-11T11:20:46;95001.50;;;20.79;70.34
8049;BME280;20935;42.660;23.342;2023-05-11T11:23:45;94987.44;;;20.81;70.39
8049;BME280;20935;42.660;23.342;2023-05-11T11:26:45;94994.41;;;20.82;70.24
8049;BME280;20935;42.660;23.342;2023-05-11T11:29:32;94991.69;;;20.82;70.70
8049;BME280;20935;42.660;23.342;2023-05-11T11:32:25;94983.53;;;20.82;70.13
8049;BME280;20935;42.660;23.342;2023-05-11T11:38:17;94987.28;;;20.84;70.27
8049;BME280;20935;42.660;23.342;2023-05-11T11:41:03;94991.53;;;20.85;70.18
8049;BME280;20935;42.660;23.342;2023-05-11T11:43:51;94983.38;;;20.85;69.88
8049;BME280;20935;42.660;23.342;2023-05-11T11:46:38;94985.34;;;20.85;69.85
8049;BME280;20935;42.660;23.342;2023-05-11T11:49:26;94984.56;;;20.84;69.88
8049;BME280;20935;42.660;23.342;2023-05-11T11:52:12;94988.81;;;20.85;69.63
8049;BME280;20935;42.660;23.342;2023-05-11T11:54:57;94981.84;;;20.84;69.84
8049;BME280;20935;42.660;23.342;2023-05-11T11:57:43;94976.41;;;20.84;69.95
8049;BME280;20935;42.660;23.342;2023-05-11T12:00:34;94984.56;;;20.84;69.88
8049;BME280;20935;42.660;23.342;2023-05-11T12:03:21;94978.09;;;20.82;69.79
8049;BME280;20935;42.660;23.342;2023-05-11T12:06:08;94974.59;;;20.81;69.60
8049;BME280;20935;42.660;23.342;2023-05-11T12:08:54;94983.53;;;20.82;69.68
8049;BME280;20935;42.660;23.342;2023-05-11T12:11:39;94978.09;;;20.82;69.60
8049;BME280;20935;42.660;23.342;2023-05-11T12:14:29;94981.53;;;20.82;69.62
8049;BME280;20935;42.660;23.342;2023-05-11T12:17:22;94973.06;;;20.80;69.46
8049;BME280;20935;42.660;23.342;2023-05-11T12:20:11;94972.31;;;20.80;69.57
8049;BME280;20935;42.660;23.342;2023-05-11T12:22:58;94968.53;;;20.77;69.57
8049;BME280;20935;42.660;23.342;2023-05-11T12:25:43;94971.25;;;20.77;69.48
8049;BME280;20935;42.660;23.342;2023-05-11T12:28:28;94971.56;;;20.79;69.09
8049;BME280;20935;42.660;23.342;2023-05-11T12:31:13;94962.63;;;20.79;69.36
8049;BME280;20935;42.660;23.342;2023-05-11T12:33:59;94954.47;;;20.79;69.08
8049;BME280;20935;42.660;23.342;2023-05-11T12:36:44;94961.88;;;20.78;69.09
8049;BME280;20935;42.660;23.342;2023-05-11T12:39:31;94954.47;;;20.79;68.70
8049;BME280;20935;42.660;23.342;2023-05-11T12:42:18;94945.53;;;20.78;69.09
8049;BME280;20935;42.660;23.342;2023-05-11T12:45:05;94940.09;;;20.78;68.57
8049;BME280;20935;42.660;23.342;2023-05-11T12:47:50;94941.31;;;20.77;68.52
8049;BME280;20935;42.660;23.342;2023-05-11T12:50:38;94937.84;;;20.77;68.61
8049;BME280;20935;42.660;23.342;2023-05-11T12:53:23;94938.88;;;20.79;68.04
8049;BME280;20935;42.660;23.342;2023-05-11T12:56:10;94937.84;;;20.77;67.70
8049;BME280;20935;42.660;23.342;2023-05-11T12:58:55;94922.41;;;20.74;67.97
8049;BME280;20935;42.660;23.342;2023-05-11T13:01:40;94925.13;;;20.74;67.73
8049;BME280;20935;42.660;23.342;2023-05-11T13:04:28;94924.81;;;20.72;67.62
8049;BME280;20935;42.660;23.342;2023-05-11T13:07:25;94929.50;;;20.71;67.30
8049;BME280;20935;42.660;23.342;2023-05-11T13:10:10;94906.25;;;20.70;67.17
8049;BME280;20935;42.660;23.342;2023-05-11T13:12:57;94919.97;;;20.67;67.05
8049;BME280;20935;42.660;23.342;2023-05-11T13:15:49;94925.41;;;20.67;66.95
8049;BME280;20935;42.660;23.342;2023-05-11T13:18:34;94922.25;;;20.68;66.67
8049;BME280;20935;42.660;23.342;2023-05-11T13:21:19;94922.25;;;20.68;66.58
8049;BME280;20935;42.660;23.342;2023-05-11T13:24:05;94921.50;;;20.68;66.49
8049;BME280;20935;42.660;23.342;2023-05-11T13:26:50;94919.53;;;20.68;66.51
8049;BME280;20935;42.660;23.342;2023-05-11T13:29:37;94914.09;;;20.68;66.24
8049;BME280;20935;42.660;23.342;2023-05-11T13:32:22;94917.25;;;20.67;66.11
8049;BME280;20935;42.660;23.342;2023-05-11T13:35:08;94915.28;;;20.67;66.09
8049;BME280;20935;42.660;23.342;2023-05-11T13:37:53;94920.72;;;20.67;65.96
8049;BME280;20935;42.660;23.342;2023-05-11T13:40:38;94914.84;;;20.59;66.32
8049;BME280;20935;42.660;23.342;2023-05-11T13:43:23;94908.63;;;20.59;66.25
8049;BME280;20935;42.660;23.342;2023-05-11T13:46:10;94916.03;;;20.58;65.77
8049;BME280;20935;42.660;23.342;2023-05-11T13:48:55;94906.69;;;20.59;65.62
8049;BME280;20935;42.660;23.342;2023-05-11T13:51:42;94925.13;;;20.65;65.71
8049;BME280;20935;42.660;23.342;2023-05-11T13:54:27;94914.41;;;20.61;65.32
8049;BME280;20935;42.660;23.342;2023-05-11T13:57:14;94914.41;;;20.61;65.25
8049;BME280;20935;42.660;23.342;2023-05-11T13:59:59;94906.69;;;20.59;65.19
8049;BME280;20935;42.660;23.342;2023-05-11T14:02:46;94912.88;;;20.60;65.04
8049;BME280;20935;42.660;23.342;2023-05-11T14:05:32;94904.72;;;20.60;65.24
8049;BME280;20935;42.660;23.342;2023-05-11T14:08:17;94893.06;;;20.59;64.83
8049;BME280;20935;42.660;23.342;2023-05-11T14:11:03;94900.47;;;20.59;65.03
8049;BME280;20935;42.660;23.342;2023-05-11T14:13:49;94905.16;;;20.58;64.71
8049;BME280;20935;42.660;23.342;2023-05-11T14:16:34;94895.03;;;20.59;64.88
8049;BME280;20935;42.660;23.342;2023-05-11T14:19:21;94899.28;;;20.60;64.45
8049;BME280;20935;42.660;23.342;2023-05-11T14:22:06;94895.34;;;20.61;64.32
8049;BME280;20935;42.660;23.342;2023-05-11T14:24:52;94899.41;;;20.56;64.23
8049;BME280;20935;42.660;23.342;2023-05-11T14:27:37;94905.47;;;20.60;64.24
8049;BME280;20935;42.660;23.342;2023-05-11T14:30:22;94902.75;;;20.60;64.12
8049;BME280;20935;42.660;23.342;2023-05-11T14:33:07;94904.72;;;20.60;64.00
8049;BME280;20935;42.660;23.342;2023-05-11T14:35:54;94898.22;;;20.57;64.43
8049;BME280;20935;42.660;23.342;2023-05-11T14:38:40;94895.34;;;20.52;64.24
8049;BME280;20935;42.660;23.342;2023-05-11T14:41:25;94898.38;;;20.54;64.04
8049;BME280;20935;42.660;23.342;2023-05-11T14:44:10;94898.81;;;20.52;63.98
8049;BME280;20935;42.660;23.342;2023-05-11T14:46:56;94904.41;;;20.49;64.01
8049;BME280;20935;42.660;23.342;2023-05-11T14:49:41;94905.19;;;20.49;64.09